sensor_id;sensor_type;location;lat;lon;timestamp;temperature;humidity
7360;DHT22;3720;48.274;7.796;2023-04-04T00:00:50;3.10;99.90
7360;DHT22;3720;48.274;7.796;2023-04-04T00:03:22;3.00;99.90
7360;DHT22;3720;48.274;7.796;2023-04-04T00:05:56;3.00;99.90
7360;DHT22;3720;48.274;7.796;2023-04-04T00:08:28;3.00;99.90
7360;DHT22;3720;48.274;7.796;2023-04-04T00:11:00;2.90;99.90
7360;DHT22;3720;48.274;7.796;2023-04-04T00:13:32;3.00;99.90
7360;DHT22;3720;48.274;7.796;2023-04-04T00:16:05;2.90;99.90
7360;DHT22;3720;48.274;7.796;2023-04-04T00:18:37;2.90;99.90
7360;DHT22;3720;48.274;7.796;2023-04-04T00:21:10;2.90;99.90
7360;DHT22;3720;48.274;7.796;2023-04-04T00:23:42;2.90;99.90
7360;DHT22;3720;48.274;7.796;2023-04-04T00:26:14;2.90;99.90
7360;DHT22;3720;48.274;7.796;2023-04-04T00:28:47;2.90;99.90
7360;DHT22;3720;48.274;7.796;2023-04-04T00:31:18;2.90;99.90
7360;DHT22;3720;48.274;7.796;2023-04-04T00:33:51;2.90;99.90
7360;DHT22;3720;48.274;7.796;2023-04-04T00:36:24;2.80;99.90
7360;DHT22;3720;48.274;7.796;2023-04-04T00:38:56;2.80;99.90
7360;DHT22;3720;48.274;7.796;2023-04-04T00:41:28;2.70;99.90
7360;DHT22;3720;48.274;7.796;2023-04-04T00:44:00;2.70;99.90
7360;DHT22;3720;48.274;7.796;2023-04-04T00:46:32;2.70;99.90
7360;DHT22;3720;48.274;7.796;2023-04-04T00:49:04;2.60;99.90
7360;DHT22;3720;48.274;7.796;2023-04-04T00:51:38;2.60;99.90
7360;DHT22;3720;48.274;7.796;2023-04-04T00:54:09;2.60;99.90
7360;DHT22;3720;48.274;7.796;2023-04-04T00:56:42;2.60;99.90
7360;DHT22;3720;48.274;7.796;2023-04-04T00:59:14;2.60;99.90
7360;DHT22;3720;48.274;7.796;2023-04-04T01:01:46;2.50;99.90
7360;DHT22;3720;48.274;7.796;2023-04-04T01:04:18;2.50;99.90
7360;DHT22;3720;48.274;7.796;2023-04-04T01:06:52;2.50;99.90
7360;DHT22;3720;48.274;7.796;2023-04-04T01:09:24;2.50;99.90
7360;DHT22;3720;48.274;7.796;2023-04-04T01:11:57;2.40;99.90
7360;DHT22;3720;48.274;7.796;2023-04-04T01:14:28;2.40;99.90
7360;DHT22;3720;48.274;7.796;2023-04-04T01:17:00;2.40;99.90
7360;DHT22;3720;48.274;7.796;2023-04-04T01:19:36;2.30;99.90
7360;DHT22;3720;48.274;7.796;2023-04-04T01:22:11;2.30;99.90
7360;DHT22;3720;48.274;7.796;2023-04-04T01:24:45;2.20;99.90
7360;DHT22;3720;48.274;7.796;2023-04-04T01:27:20;2.30;99.90
7360;DHT22;3720;48.274;7.796;2023-04-04T01:29:53;2.20;99.90
7360;DHT22;3720;48.274;7.796;2023-04-04T01:32:35;2.20;99.90
7360;DHT22;3720;48.274;7.796;2023-04-04T01:35:14;2.10;99.90
7360;DHT22;3720;48.274;7.796;2023-04-04T01:37:54;2.20;99.90
7360;DHT22;3720;48.274;7.796;2023-04-04T01:40:31;2.20;99.90
7360;DHT22;3720;48.274;7.796;2023-04-04T01:43:06;2.10;99.90
7360;DHT22;3720;48.274;7.796;2023-04-04T01:45:39;2.00;99.90
7360;DHT22;3720;48.274;7.796;2023-04-04T01:48:11;2.00;99.90
7360;DHT22;3720;48.274;7.796;2023-04-04T01:50:46;1.90;99.90
7360;DHT22;3720;48.274;7.796;2023-04-04T01:53:17;1.90;99.90
7360;DHT22;3720;48.274;7.796;2023-04-04T01:55:51;1.80;99.90
7360;DHT22;3720;48.274;7.796;2023-04-04T01:58:25;1.80;99.90
7360;DHT22;3720;48.274;7.796;2023-04-04T02:00:57;1.80;99.90
7360;DHT22;3720;48.274;7.796;2023-04-04T02:03:29;1.70;99.90
7360;DHT22;3720;48.274;7.796;2023-04-04T02:06:01;1.70;99.90
7360;DHT22;3720;48.274;7.796;2023-04-04T02:08:32;1.60;99.90
7360;DHT22;3720;48.274;7.796;2023-04-04T02:11:05;1.60;99.90
7360;DHT22;3720;48.274;7.796;2023-04-04T02:13:38;1.60;99.90
7360;DHT22;3720;48.274;7.796;2023-04-04T02:16:13;1.60;99.90
7360;DHT22;3720;48.274;7.796;2023-04-04T02:18:45;1.60;99.90
7360;DHT22;3720;48.274;7.796;2023-04-04T02:21:17;1.60;99.90
7360;DHT22;3720;48.274;7.796;2023-04-04T02:23:49;1.60;99.90
7360;DHT22;3720;48.274;7.796;2023-04-04T02:26:21;1.60;99.90
7360;DHT22;3720;48.274;7.796;2023-04-04T02:28:54;1.60;99.90
7360;DHT22;3720;48.274;7.796;2023-04-04T02:31:26;1.60;99.90
7360;DHT22;3720;48.274;7.796;2023-04-04T02:33:59;1.60;99.90
7360;DHT22;3720;48.274;7.796;2023-04-04T02:36:30;1.50;99.90
7360;DHT22;3720;48.274;7.796;2023-04-04T02:39:02;1.50;99.90
7360;DHT22;3720;48.274;7.796;2023-04-04T02:41:35;1.40;99.90
7360;DHT22;3720;48.274;7.796;2023-04-04T02:44:08;1.40;99.90
7360;DHT22;3720;48.274;7.796;2023-04-04T02:46:40;1.40;99.90
7360;DHT22;3720;48.274;7.796;2023-04-04T02:49:12;1.30;99.90
7360;DHT22;3720;48.274;7.796;2023-04-04T02:51:44;1.30;99.90
7360;DHT22;3720;48.274;7.796;2023-04-04T02:54:17;1.30;99.90
7360;DHT22;3720;48.274;7.796;2023-04-04T02:56:49;1.30;99.90
7360;DHT22;3720;48.274;7.796;2023-04-04T02:59:22;1.30;99.90
7360;DHT22;3720;48.274;7.796;2023-04-04T03:01:54;1.30;99.90
7360;DHT22;3720;48.274;7.796;2023-04-04T03:04:26;1.30;99.90
7360;DHT22;3720;48.274;7.796;2023-04-04T03:06:58;1.20;99.90
7360;DHT22;3720;48.274;7.796;2023-04-04T03:09:30;1.20;99.90
7360;DHT22;3720;48.274;7.796;2023-04-04T03:12:02;1.20;99.90
7360;DHT22;3720;48.274;7.796;2023-04-04T03:14:36;1.10;99.90
7360;DHT22;3720;48.274;7.796;2023-04-04T03:17:08;1.10;99.90
7360;DHT22;3720;48.274;7.796;2023-04-04T03:19:44;1.10;99.90
7360;DHT22;3720;48.274;7.796;2023-04-04T03:22:16;1.10;99.90
7360;DHT22;3720;48.274;7.796;2023-04-04T03:24:48;1.10;99.90
7360;DHT22;3720;48.274;7.796;2023-04-04T03:27:20;1.10;99.90
7360;DHT22;3720;48.274;7.796;2023-04-04T03:29:53;1.00;99.90
7360;DHT22;3720;48.274;7.796;2023-04-04T03:32:25;1.00;99.90
7360;DHT22;3720;48.274;7.796;2023-04-04T03:34:58;1.00;99.90
7360;DHT22;3720;48.274;7.796;2023-04-04T03:37:29;1.00;99.90
7360;DHT22;3720;48.274;7.796;2023-04-04T03:40:02;1.00;99.90
7360;DHT22;3720;48.274;7.796;2023-04-04T03:42:34;1.00;99.90
7360;DHT22;3720;48.274;7.796;2023-04-04T03:45:08;1.00;99.90
7360;DHT22;3720;48.274;7.796;2023-04-04T03:47:41;1.00;99.90
7360;DHT22;3720;48.274;7.796;2023-04-04T03:50:12;1.00;99.90
7360;DHT22;3720;48.274;7.796;2023-04-04T03:52:45;0.90;99.90
7360;DHT22;3720;48.274;7.796;2023-04-04T03:55:17;0.80;99.90
7360;DHT22;3720;48.274;7.796;2023-04-04T03:57:49;0.80;99.90
7360;DHT22;3720;48.274;7.796;2023-04-04T04:00:24;0.80;99.90
7360;DHT22;3720;48.274;7.796;2023-04-04T04:02:56;0.80;99.90
7360;DHT22;3720;48.274;7.796;2023-04-04T04:05:28;0.90;99.90
7360;DHT22;3720;48.274;7.796;2023-04-04T04:08:00;0.80;99.90
7360;DHT22;3720;48.274;7.796;2023-04-04T04:10:32;0.80;99.90
7360;DHT22;3720;48.274;7.796;2023-04-04T04:13:03;0.80;99.90
7360;DHT22;3720;48.274;7.796;2023-04-04T04:15:37;0.80;99.90
7360;DHT22;3720;48.274;7.796;2023-04-04T04:18:09;0.80;99.90
7360;DHT22;3720;48.274;7.796;2023-04-04T04:20:41;0.80;99.90
7360;DHT22;3720;48.274;7.796;2023-04-04T04:23:13;0.80;99.90
7360;DHT22;3720;48.274;7.796;2023-04-04T04:25:46;0.70;99.90
7360;DHT22;3720;48.274;7.796;2023-04-04T04:28:18;0.70;99.90
7360;DHT22;3720;48.274;7.796;2023-04-04T04:30:52;0.70;99.90
7360;DHT22;3720;48.274;7.796;2023-04-04T04:33:27;0.70;99.90
7360;DHT22;3720;48.274;7.796;2023-04-04T04:36:00;0.70;99.90
7360;DHT22;3720;48.274;7.796;2023-04-04T04:38:32;0.70;99.90
7360;DHT22;3720;48.274;7.796;2023-04-04T04:41:04;0.70;99.90
7360;DHT22;3720;48.274;7.796;2023-04-04T04:43:37;0.70;99.90
7360;DHT22;3720;48.274;7.796;2023-04-04T04:46:10;0.70;99.90
7360;DHT22;3720;48.274;7.796;2023-04-04T04:48:44;0.60;99.90
7360;DHT22;3720;48.274;7.796;2023-04-04T04:51:16;0.60;99.90
7360;DHT22;3720;48.274;7.796;2023-04-04T04:53:50;0.60;99.90
7360;DHT22;3720;48.274;7.796;2023-04-04T04:56:22;0.60;99.90
7360;DHT22;3720;48.274;7.796;2023-04-04T04:58:54;0.60;99.90
7360;DHT22;3720;48.274;7.796;2023-04-04T05:01:27;0.60;99.90
7360;DHT22;3720;48.274;7.796;2023-04-04T05:03:59;0.60;99.90
7360;DHT22;3720;48.274;7.796;2023-04-04T05:06:31;0.60;99.90
7360;DHT22;3720;48.274;7.796;2023-04-04T05:09:03;0.60;99.90
7360;DHT22;3720;48.274;7.796;2023-04-04T05:11:35;0.60;99.90
7360;DHT22;3720;48.274;7.796;2023-04-04T05:14:07;0.60;99.90
7360;DHT22;3720;48.274;7.796;2023-04-04T05:16:40;0.60;99.90
7360;DHT22;3720;48.274;7.796;2023-04-04T05:19:12;0.60;99.90
7360;DHT22;3720;48.274;7.796;2023-04-04T05:21:44;0.60;99.90
7360;DHT22;3720;48.274;7.796;2023-04-04T05:24:16;0.60;99.90
7360;DHT22;3720;48.274;7.796;2023-04-04T05:26:48;0.60;99.90
7360;DHT22;3720;48.274;7.796;2023-04-04T05:29:20;0.60;99.90
7360;DHT22;3720;48.274;7.796;2023-04-04T05:31:54;0.60;99.90
7360;DHT22;3720;48.274;7.796;2023-04-04T05:34:26;0.60;99.90
7360;DHT22;3720;48.274;7.796;2023-04-04T05:36:58;0.60;99.90
7360;DHT22;3720;48.274;7.796;2023-04-04T05:39:30;0.60;99.90
7360;DHT22;3720;48.274;7.796;2023-04-04T05:42:01;0.70;99.90
7360;DHT22;3720;48.274;7.796;2023-04-04T05:44:33;0.60;99.90
7360;DHT22;3720;48.274;7.796;2023-04-04T05:47:08;0.60;99.90
7360;DHT22;3720;48.274;7.796;2023-04-04T05:49:40;0.60;99.90
7360;DHT22;3720;48.274;7.796;2023-04-04T05:52:12;0.60;99.90
7360;DHT22;3720;48.274;7.796;2023-04-04T05:54:44;0.70;99.90
7360;DHT22;3720;48.274;7.796;2023-04-04T05:57:16;0.70;99.90
7360;DHT22;3720;48.274;7.796;2023-04-04T05:59:48;0.80;99.90
7360;DHT22;3720;48.274;7.796;2023-04-04T06:02:22;0.80;99.90
7360;DHT22;3720;48.274;7.796;2023-04-04T06:04:54;0.80;99.90
7360;DHT22;3720;48.274;7.796;2023-04-04T06:07:26;0.90;99.90
7360;DHT22;3720;48.274;7.796;2023-04-04T06:09:58;0.90;99.90
7360;DHT22;3720;48.274;7.796;2023-04-04T06:12:30;0.90;99.90
7360;DHT22;3720;48.274;7.796;2023-04-04T06:15:02;0.90;99.90
7360;DHT22;3720;48.274;7.796;2023-04-04T06:17:35;1.00;99.90
7360;DHT22;3720;48.274;7.796;2023-04-04T06:20:09;1.00;99.90
7360;DHT22;3720;48.274;7.796;2023-04-04T06:22:41;1.00;99.90
7360;DHT22;3720;48.274;7.796;2023-04-04T06:25:13;1.10;99.90
7360;DHT22;3720;48.274;7.796;2023-04-04T06:27:45;1.20;99.90
7360;DHT22;3720;48.274;7.796;2023-04-04T06:30:17;1.20;99.90
7360;DHT22;3720;48.274;7.796;2023-04-04T06:32:51;1.30;99.90
7360;DHT22;3720;48.274;7.796;2023-04-04T06:35:24;1.30;99.90
7360;DHT22;3720;48.274;7.796;2023-04-04T06:37:55;1.40;99.90
7360;DHT22;3720;48.274;7.796;2023-04-04T06:40:27;1.40;99.90
7360;DHT22;3720;48.274;7.796;2023-04-04T06:42:59;1.50;99.90
7360;DHT22;3720;48.274;7.796;2023-04-04T06:45:32;1.50;99.90
7360;DHT22;3720;48.274;7.796;2023-04-04T06:48:06;1.60;99.90
7360;DHT22;3720;48.274;7.796;2023-04-04T06:50:39;1.70;99.90
7360;DHT22;3720;48.274;7.796;2023-04-04T06:53:11;1.80;99.90
7360;DHT22;3720;48.274;7.796;2023-04-04T06:55:44;1.90;99.90
7360;DHT22;3720;48.274;7.796;2023-04-04T06:58:16;2.00;99.90
7360;DHT22;3720;48.274;7.796;2023-04-04T07:00:48;2.10;99.90
7360;DHT22;3720;48.274;7.796;2023-04-04T07:03:22;2.20;99.90
7360;DHT22;3720;48.274;7.796;2023-04-04T07:05:54;2.20;99.90
7360;DHT22;3720;48.274;7.796;2023-04-04T07:08:26;2.20;99.90
7360;DHT22;3720;48.274;7.796;2023-04-04T07:10:57;2.40;99.90
7360;DHT22;3720;48.274;7.796;2023-04-04T07:13:30;2.50;99.90
7360;DHT22;3720;48.274;7.796;2023-04-04T07:16:02;2.60;99.90
7360;DHT22;3720;48.274;7.796;2023-04-04T07:18:35;2.70;99.90
7360;DHT22;3720;48.274;7.796;2023-04-04T07:21:07;2.80;99.90
7360;DHT22;3720;48.274;7.796;2023-04-04T07:23:39;2.90;99.90
7360;DHT22;3720;48.274;7.796;2023-04-04T07:26:11;3.00;99.90
7360;DHT22;3720;48.274;7.796;2023-04-04T07:28:43;3.10;99.90
7360;DHT22;3720;48.274;7.796;2023-04-04T07:31:15;3.20;99.90
7360;DHT22;3720;48.274;7.796;2023-04-04T07:33:48;3.30;99.90
7360;DHT22;3720;48.274;7.796;2023-04-04T07:36:20;3.40;99.90
7360;DHT22;3720;48.274;7.796;2023-04-04T07:38:52;3.50;99.90
7360;DHT22;3720;48.274;7.796;2023-04-04T07:41:24;3.70;99.90
7360;DHT22;3720;48.274;7.796;2023-04-04T07:43:56;3.80;99.90
7360;DHT22;3720;48.274;7.796;2023-04-04T07:46:28;3.90;99.90
7360;DHT22;3720;48.274;7.796;2023-04-04T07:49:01;4.00;99.90
7360;DHT22;3720;48.274;7.796;2023-04-04T07:51:33;4.20;99.90
7360;DHT22;3720;48.274;7.796;2023-04-04T07:54:05;4.30;99.90
7360;DHT22;3720;48.274;7.796;2023-04-04T07:56:37;4.40;99.90
7360;DHT22;3720;48.274;7.796;2023-04-04T07:59:09;4.50;99.90
7360;DHT22;3720;48.274;7.796;2023-04-04T08:01:41;4.60;99.90
7360;DHT22;3720;48.274;7.796;2023-04-04T08:04:15;4.70;99.90
7360;DHT22;3720;48.274;7.796;2023-04-04T08:06:47;4.80;99.90
7360;DHT22;3720;48.274;7.796;2023-04-04T08:09:19;4.90;99.90
7360;DHT22;3720;48.274;7.796;2023-04-04T08:11:51;5.10;99.90
7360;DHT22;3720;48.274;7.796;2023-04-04T08:14:23;5.20;99.90
7360;DHT22;3720;48.274;7.796;2023-04-04T08:16:55;5.40;99.90
7360;DHT22;3720;48.274;7.796;2023-04-04T08:19:28;5.40;99.90
7360;DHT22;3720;48.274;7.796;2023-04-04T08:22:00;5.50;99.90
7360;DHT22;3720;48.274;7.796;2023-04-04T08:24:32;5.70;99.90
7360;DHT22;3720;48.274;7.796;2023-04-04T08:27:04;5.80;99.90
7360;DHT22;3720;48.274;7.796;2023-04-04T08:29:38;5.90;99.90
7360;DHT22;3720;48.274;7.796;2023-04-04T08:32:10;6.00;99.90
7360;DHT22;3720;48.274;7.796;2023-04-04T08:34:43;6.10;99.90
7360;DHT22;3720;48.274;7.796;2023-04-04T08:37:15;6.20;99.90
7360;DHT22;3720;48.274;7.796;2023-04-04T08:39:47;6.40;99.90
7360;DHT22;3720;48.274;7.796;2023-04-04T08:42:19;6.60;99.90
7360;DHT22;3720;48.274;7.796;2023-04-04T08:44:52;6.70;99.90
7360;DHT22;3720;48.274;7.796;2023-04-04T08:47:25;6.80;99.90
7360;DHT22;3720;48.274;7.796;2023-04-04T08:50:03;6.90;99.90
7360;DHT22;3720;48.274;7.796;2023-04-04T08:52:36;7.00;99.90
7360;DHT22;3720;48.274;7.796;2023-04-04T08:55:09;7.10;99.90
7360;DHT22;3720;48.274;7.796;2023-04-04T08:57:41;7.20;99.90
7360;DHT22;3720;48.274;7.796;2023-04-04T09:00:14;7.30;99.90
7360;DHT22;3720;48.274;7.796;2023-04-04T09:02:51;7.40;99.90
7360;DHT22;3720;48.274;7.796;2023-04-04T09:05:28;7.50;99.90
7360;DHT22;3720;48.274;7.796;2023-04-04T09:08:02;7.60;99.90
7360;DHT22;3720;48.274;7.796;2023-04-04T09:10:36;7.70;99.90
7360;DHT22;3720;48.274;7.796;2023-04-04T09:13:11;7.90;99.90
7360;DHT22;3720;48.274;7.796;2023-04-04T09:15:46;8.00;99.90
7360;DHT22;3720;48.274;7.796;2023-04-04T09:18:18;8.20;99.90
7360;DHT22;3720;48.274;7.796;2023-04-04T09:20:52;8.20;99.90
7360;DHT22;3720;48.274;7.796;2023-04-04T09:23:24;8.30;99.90
7360;DHT22;3720;48.274;7.796;2023-04-04T09:25:55;8.30;99.90
7360;DHT22;3720;48.274;7.796;2023-04-04T09:28:27;8.40;99.90
7360;DHT22;3720;48.274;7.796;2023-04-04T09:31:01;8.50;99.90
7360;DHT22;3720;48.274;7.796;2023-04-04T09:33:35;8.70;99.90
7360;DHT22;3720;48.274;7.796;2023-04-04T09:36:10;8.70;99.90
7360;DHT22;3720;48.274;7.796;2023-04-04T09:38:43;8.90;99.90
7360;DHT22;3720;48.274;7.796;2023-04-04T09:41:18;8.90;99.90
7360;DHT22;3720;48.274;7.796;2023-04-04T09:43:51;8.90;99.90
7360;DHT22;3720;48.274;7.796;2023-04-04T09:46:23;9.00;99.90
7360;DHT22;3720;48.274;7.796;2023-04-04T09:48:59;9.10;99.90
7360;DHT22;3720;48.274;7.796;2023-04-04T09:51:36;9.10;99.90
7360;DHT22;3720;48.274;7.796;2023-04-04T09:54:09;9.20;99.90
7360;DHT22;3720;48.274;7.796;2023-04-04T09:56:41;9.30;99.90
7360;DHT22;3720;48.274;7.796;2023-04-04T09:59:15;9.50;99.90
7360;DHT22;3720;48.274;7.796;2023-04-04T10:01:47;9.60;99.90
7360;DHT22;3720;48.274;7.796;2023-04-04T10:04:20;9.70;99.90
7360;DHT22;3720;48.274;7.796;2023-04-04T10:06:55;9.90;99.90
7360;DHT22;3720;48.274;7.796;2023-04-04T10:09:27;10.00;99.90
7360;DHT22;3720;48.274;7.796;2023-04-04T10:12:07;10.20;99.90
7360;DHT22;3720;48.274;7.796;2023-04-04T10:14:39;10.30;99.90
7360;DHT22;3720;48.274;7.796;2023-04-04T10:17:11;10.40;99.90
7360;DHT22;3720;48.274;7.796;2023-04-04T10:19:43;10.50;99.90
7360;DHT22;3720;48.274;7.796;2023-04-04T10:22:19;10.70;99.90
7360;DHT22;3720;48.274;7.796;2023-04-04T10:24:53;10.90;99.90
7360;DHT22;3720;48.274;7.796;2023-04-04T10:27:25;11.00;99.90
7360;DHT22;3720;48.274;7.796;2023-04-04T10:29:58;11.10;99.90
7360;DHT22;3720;48.274;7.796;2023-04-04T10:32:37;11.30;99.90
7360;DHT22;3720;48.274;7.796;2023-04-04T10:35:14;11.40;99.90
7360;DHT22;3720;48.274;7.796;2023-04-04T10:37:51;11.60;99.90
7360;DHT22;3720;48.274;7.796;2023-04-04T10:40:27;11.80;99.90
7360;DHT22;3720;48.274;7.796;2023-04-04T10:43:02;12.00;99.90
7360;DHT22;3720;48.274;7.796;2023-04-04T10:45:35;12.20;99.90
7360;DHT22;3720;48.274;7.796;2023-04-04T10:48:07;12.40;99.90
7360;DHT22;3720;48.274;7.796;2023-04-04T10:50:40;12.60;99.90
7360;DHT22;3720;48.274;7.796;2023-04-04T10:53:13;12.70;99.90
7360;DHT22;3720;48.274;7.796;2023-04-04T10:55:45;12.90;99.90
7360;DHT22;3720;48.274;7.796;2023-04-04T10:58:17;13.10;99.90
7360;DHT22;3720;48.274;7.796;2023-04-04T11:00:51;13.20;99.90
7360;DHT22;3720;48.274;7.796;2023-04-04T11:03:24;13.40;99.90
7360;DHT22;3720;48.274;7.796;2023-04-04T11:05:56;13.60;99.00
7360;DHT22;3720;48.274;7.796;2023-04-04T11:08:32;13.70;98.60
7360;DHT22;3720;48.274;7.796;2023-04-04T11:11:07;13.70;98.60
7360;DHT22;3720;48.274;7.796;2023-04-04T11:13:39;13.90;97.60
7360;DHT22;3720;48.274;7.796;2023-04-04T11:16:11;13.90;96.30
7360;DHT22;3720;48.274;7.796;2023-04-04T11:18:45;14.00;97.90
7360;DHT22;3720;48.274;7.796;2023-04-04T11:21:19;14.20;97.40
7360;DHT22;3720;48.274;7.796;2023-04-04T11:24:13;14.40;97.30
7360;DHT22;3720;48.274;7.796;2023-04-04T11:26:46;14.60;95.70
7360;DHT22;3720;48.274;7.796;2023-04-04T11:29:20;14.70;95.20
7360;DHT22;3720;48.274;7.796;2023-04-04T11:31:54;14.90;95.10
7360;DHT22;3720;48.274;7.796;2023-04-04T11:34:31;14.90;95.10
7360;DHT22;3720;48.274;7.796;2023-04-04T11:37:15;15.10;94.90
7360;DHT22;3720;48.274;7.796;2023-04-04T11:39:49;15.10;93.70
7360;DHT22;3720;48.274;7.796;2023-04-04T11:42:33;15.10;93.60
7360;DHT22;3720;48.274;7.796;2023-04-04T11:45:08;15.20;92.60
7360;DHT22;3720;48.274;7.796;2023-04-04T11:47:45;15.30;92.40
7360;DHT22;3720;48.274;7.796;2023-04-04T11:50:18;15.10;93.10
7360;DHT22;3720;48.274;7.796;2023-04-04T11:52:50;15.30;93.40
7360;DHT22;3720;48.274;7.796;2023-04-04T11:55:25;15.20;92.10
7360;DHT22;3720;48.274;7.796;2023-04-04T11:58:05;15.10;91.30
7360;DHT22;3720;48.274;7.796;2023-04-04T12:00:38;15.20;91.70
7360;DHT22;3720;48.274;7.796;2023-04-04T12:03:11;15.30;90.30
7360;DHT22;3720;48.274;7.796;2023-04-04T12:05:44;15.40;91.30
7360;DHT22;3720;48.274;7.796;2023-04-04T12:08:17;15.60;91.70
7360;DHT22;3720;48.274;7.796;2023-04-04T12:10:51;15.70;89.50
7360;DHT22;3720;48.274;7.796;2023-04-04T12:13:29;15.90;87.90
7360;DHT22;3720;48.274;7.796;2023-04-04T12:16:02;15.80;85.90
7360;DHT22;3720;48.274;7.796;2023-04-04T12:18:33;15.80;87.20
7360;DHT22;3720;48.274;7.796;2023-04-04T12:21:05;15.70;88.30
7360;DHT22;3720;48.274;7.796;2023-04-04T12:23:38;15.60;86.80
7360;DHT22;3720;48.274;7.796;2023-04-04T12:26:11;15.80;88.50
7360;DHT22;3720;48.274;7.796;2023-04-04T12:28:43;15.90;87.10
7360;DHT22;3720;48.274;7.796;2023-04-04T12:31:16;15.90;86.20
7360;DHT22;3720;48.274;7.796;2023-04-04T12:33:48;15.70;86.80
7360;DHT22;3720;48.274;7.796;2023-04-04T12:36:24;15.60;85.50
7360;DHT22;3720;48.274;7.796;2023-04-04T12:39:00;15.70;86.50
7360;DHT22;3720;48.274;7.796;2023-04-04T12:41:34;15.90;84.60
7360;DHT22;3720;48.274;7.796;2023-04-04T12:44:06;16.10;85.30
7360;DHT22;3720;48.274;7.796;2023-04-04T12:46:39;16.00;83.60
7360;DHT22;3720;48.274;7.796;2023-04-04T12:49:12;16.10;83.80
7360;DHT22;3720;48.274;7.796;2023-04-04T12:51:44;16.20;82.30
7360;DHT22;3720;48.274;7.796;2023-04-04T12:54:27;16.20;82.00
7360;DHT22;3720;48.274;7.796;2023-04-04T12:57:02;16.30;81.90
7360;DHT22;3720;48.274;7.796;2023-04-04T12:59:35;16.30;81.00
7360;DHT22;3720;48.274;7.796;2023-04-04T13:02:12;16.40;80.70
7360;DHT22;3720;48.274;7.796;2023-04-04T13:04:45;16.50;81.40
7360;DHT22;3720;48.274;7.796;2023-04-04T13:07:21;16.50;80.40
7360;DHT22;3720;48.274;7.796;2023-04-04T13:09:55;16.60;77.80
7360;DHT22;3720;48.274;7.796;2023-04-04T13:15:47;16.50;76.30
7360;DHT22;3720;48.274;7.796;2023-04-04T13:18:21;16.70;77.50
7360;DHT22;3720;48.274;7.796;2023-04-04T13:20:54;16.80;78.80
7360;DHT22;3720;48.274;7.796;2023-04-04T13:23:26;16.80;75.10
7360;DHT22;3720;48.274;7.796;2023-04-04T13:25:58;16.70;76.40
7360;DHT22;3720;48.274;7.796;2023-04-04T13:28:30;16.80;73.80
7360;DHT22;3720;48.274;7.796;2023-04-04T13:31:04;16.80;75.10
7360;DHT22;3720;48.274;7.796;2023-04-04T13:33:37;16.80;74.80
7360;DHT22;3720;48.274;7.796;2023-04-04T13:36:09;16.60;72.50
7360;DHT22;3720;48.274;7.796;2023-04-04T13:38:43;16.50;73.50
7360;DHT22;3720;48.274;7.796;2023-04-04T13:41:15;16.40;74.00
7360;DHT22;3720;48.274;7.796;2023-04-04T13:43:47;16.50;73.80
7360;DHT22;3720;48.274;7.796;2023-04-04T13:46:21;16.40;73.80
7360;DHT22;3720;48.274;7.796;2023-04-04T13:48:53;16.20;74.00
7360;DHT22;3720;48.274;7.796;2023-04-04T13:51:25;16.30;75.70
7360;DHT22;3720;48.274;7.796;2023-04-04T13:53:57;16.40;73.90
7360;DHT22;3720;48.274;7.796;2023-04-04T13:56:30;16.50;74.60
7360;DHT22;3720;48.274;7.796;2023-04-04T13:59:03;16.50;74.70
7360;DHT22;3720;48.274;7.796;2023-04-04T14:01:37;16.60;74.10
7360;DHT22;3720;48.274;7.796;2023-04-04T14:04:08;16.80;72.00
7360;DHT22;3720;48.274;7.796;2023-04-04T14:06:40;16.90;72.10
7360;DHT22;3720;48.274;7.796;2023-04-04T14:09:12;16.90;72.30
7360;DHT22;3720;48.274;7.796;2023-04-04T14:11:44;16.90;71.30
7360;DHT22;3720;48.274;7.796;2023-04-04T14:14:16;16.90;72.40
7360;DHT22;3720;48.274;7.796;2023-04-04T14:16:49;17.00;70.00
7360;DHT22;3720;48.274;7.796;2023-04-04T14:19:21;16.80;71.00
7360;DHT22;3720;48.274;7.796;2023-04-04T14:21:53;16.90;72.60
7360;DHT22;3720;48.274;7.796;2023-04-04T14:24:25;16.80;70.20
7360;DHT22;3720;48.274;7.796;2023-04-04T14:26:57;16.70;71.20
7360;DHT22;3720;48.274;7.796;2023-04-04T14:29:29;16.80;71.00
7360;DHT22;3720;48.274;7.796;2023-04-04T14:32:02;16.70;70.10
7360;DHT22;3720;48.274;7.796;2023-04-04T14:34:35;16.60;70.90
7360;DHT22;3720;48.274;7.796;2023-04-04T14:37:07;16.60;70.10
7360;DHT22;3720;48.274;7.796;2023-04-04T14:39:39;16.60;69.10
7360;DHT22;3720;48.274;7.796;2023-04-04T14:42:11;16.50;70.20
7360;DHT22;3720;48.274;7.796;2023-04-04T14:44:43;16.30;71.40
7360;DHT22;3720;48.274;7.796;2023-04-04T14:47:16;16.30;70.70
7360;DHT22;3720;48.274;7.796;2023-04-04T14:49:48;16.20;70.70
7360;DHT22;3720;48.274;7.796;2023-04-04T14:52:20;16.10;71.20
7360;DHT22;3720;48.274;7.796;2023-04-04T14:54:52;16.00;71.80
7360;DHT22;3720;48.274;7.796;2023-04-04T14:57:24;15.80;71.40
7360;DHT22;3720;48.274;7.796;2023-04-04T14:59:56;15.60;72.40
7360;DHT22;3720;48.274;7.796;2023-04-04T15:02:30;15.60;72.60
7360;DHT22;3720;48.274;7.796;2023-04-04T15:05:02;15.60;72.00
7360;DHT22;3720;48.274;7.796;2023-04-04T15:07:34;15.50;71.40
7360;DHT22;3720;48.274;7.796;2023-04-04T15:10:07;15.50;71.80
7360;DHT22;3720;48.274;7.796;2023-04-04T15:12:39;15.40;71.80
7360;DHT22;3720;48.274;7.796;2023-04-04T15:15:11;15.50;72.30
7360;DHT22;3720;48.274;7.796;2023-04-04T15:17:45;15.50;71.20
7360;DHT22;3720;48.274;7.796;2023-04-04T15:20:17;15.50;71.10
7360;DHT22;3720;48.274;7.796;2023-04-04T15:22:49;15.30;71.30
7360;DHT22;3720;48.274;7.796;2023-04-04T15:25:21;15.20;72.10
7360;DHT22;3720;48.274;7.796;2023-04-04T15:27:53;15.10;73.90
7360;DHT22;3720;48.274;7.796;2023-04-04T15:30:25;15.10;72.70
7360;DHT22;3720;48.274;7.796;2023-04-04T15:32:59;15.20;72.60
7360;DHT22;3720;48.274;7.796;2023-04-04T15:35:31;15.10;70.80
7360;DHT22;3720;48.274;7.796;2023-04-04T15:38:03;15.00;72.20
7360;DHT22;3720;48.274;7.796;2023-04-04T15:40:35;15.10;71.90
7360;DHT22;3720;48.274;7.796;2023-04-04T15:43:07;15.10;72.00
7360;DHT22;3720;48.274;7.796;2023-04-04T15:45:39;14.90;73.30
7360;DHT22;3720;48.274;7.796;2023-04-04T15:48:12;14.80;73.20
7360;DHT22;3720;48.274;7.796;2023-04-04T15:50:44;14.90;73.20
7360;DHT22;3720;48.274;7.796;2023-04-04T15:53:16;14.70;73.00
7360;DHT22;3720;48.274;7.796;2023-04-04T15:55:48;14.60;73.40
7360;DHT22;3720;48.274;7.796;2023-04-04T15:58:20;14.40;73.00
7360;DHT22;3720;48.274;7.796;2023-04-04T16:00:52;14.40;73.60
7360;DHT22;3720;48.274;7.796;2023-04-04T16:03:26;14.30;73.00
7360;DHT22;3720;48.274;7.796;2023-04-04T16:05:58;14.30;73.90
7360;DHT22;3720;48.274;7.796;2023-04-04T16:08:31;14.40;74.60
7360;DHT22;3720;48.274;7.796;2023-04-04T16:11:03;14.40;74.50
7360;DHT22;3720;48.274;7.796;2023-04-04T16:13:35;14.30;73.10
7360;DHT22;3720;48.274;7.796;2023-04-04T16:16:07;14.10;73.60
7360;DHT22;3720;48.274;7.796;2023-04-04T16:18:40;13.90;74.90
7360;DHT22;3720;48.274;7.796;2023-04-04T16:21:13;13.80;75.10
7360;DHT22;3720;48.274;7.796;2023-04-04T16:23:46;13.80;75.00
7360;DHT22;3720;48.274;7.796;2023-04-04T16:26:18;13.90;74.70
7360;DHT22;3720;48.274;7.796;2023-04-04T16:28:51;13.80;75.00
7360;DHT22;3720;48.274;7.796;2023-04-04T16:31:23;13.70;75.00
7360;DHT22;3720;48.274;7.796;2023-04-04T16:33:57;13.70;76.30
7360;DHT22;3720;48.274;7.796;2023-04-04T16:36:28;13.80;76.10
7360;DHT22;3720;48.274;7.796;2023-04-04T16:39:00;13.70;75.80
7360;DHT22;3720;48.274;7.796;2023-04-04T16:41:32;13.60;76.20
7360;DHT22;3720;48.274;7.796;2023-04-04T16:44:05;13.60;75.70
7360;DHT22;3720;48.274;7.796;2023-04-04T16:46:36;13.40;75.70
7360;DHT22;3720;48.274;7.796;2023-04-04T16:49:10;13.40;76.10
7360;DHT22;3720;48.274;7.796;2023-04-04T16:51:42;13.30;77.30